Forside
METAR-TAF:

METAR-TAF

Lufthavne :

Hancock, Michigan, USA

Breddekreds: 47-10-06N, længdekreds: 088-29-20W, højde: 334 m

Aktuelle vejr

Denne rapport blev lavet for 37 minutter siden, kl. 11:53 UTC
Vind 5 kt fra nordvest
Temperatur 18°C
Fugtighed 83%
Tryk 1018 hPa
Sigt: 16.1 km
skyfri

METAR: KCMX 121153Z AUTO 31005KT 10SM CLR 18/15 A3006 RMK AO2 SLP176 T01830150 10183 20150 51016 TSNO

Tid: 08:30 (12:30 UTC)

Vejrudsigter

Denne rapport blev lavet for 56 minutter siden, kl. 11:34 UTC
Foreløbig gælder fra 12 på 12 UTC til 13 på 12 UTC
Vind 6 kt fra varierende retninger
Sigt: 10 km
Spredte skyer i en højde af 12000 ft

TAF: KCMX 121134Z 1212/1312 VRB06KT P6SM SCT120

Vejrobservationer og prognoser fra mere end 4000 lufthavne (METAR og TAF).

De gule og røde prikker repræsenterer de meteorologiske stationer.

Flyt musen over at se navnet på stationen.

Så klik over at se vejr observationer og prognoser.

At skifte det kort: Klik på de grønne knapper med et sort kors for at zoome ind; på den grønne knap med en bindestreg for at zoome ud; eller på de grønne pile for tilstødende kort.


METAR-TAF: